W K Kellogg Airport
KBTL : now visible

Aeroporto :











RITROVATECI SU...

 
LOGIN :

Iscrizione | Disclaimer

   EN    FR    IT 

 









Sommario :    VFR   VFR Marginale   IFR   IFR Intensivo   IFR Molto Intensivo
Visibilità : 
Base nubi : 
>= 8 km
>= 3000ft
5 / 8 km
1000 / 3000 ft
1500m / 5 km
500 / 1000 ft
800 / 1500m
200 / 500 ft
< 800m
< 200 ft
Simboli :   Temporali  Nebbia  Neve Forte  Precipitazioni Forti  Vento > 20 kt






- Altitudine del aeroporto : 952 ft


KBTL - W K Kellogg

ULTIMO METAR :
  • 151505Z 28010KT 4SM -SN BR FEW016 SCT021 OVC037 M03/M05 A3003 RMK AO2 P0000 T10281050

METARs OBSOLETI :
  • 151453Z 29010KT 2SM -SN BR SCT018 BKN022 OVC035 M03/M05 A3003 RMK AO2 SLP180 P0000 60000 T10281050 51028
  • 151436Z 29010KT 2SM -SN SCT021 SCT026 OVC034 M03/M06 A3003 RMK AO2 P0000 T10281056
  • 151429Z 29011KT 3SM -SN SCT021 OVC034 M03/M06 A3002 RMK AO2 P0000 T10281056
  • 151420Z 28010KT 2SM -SN BR SCT019 BKN026 OVC032 M03/M05 A3002 RMK AO2 P0000 T10281050
  • 151353Z 27010KT 5SM -SN SCT017 OVC029 M02/M05 A3000 RMK AO2 SLP171 P0000 T10221050
  • 151345Z 29010KT 5SM -SN FEW014 OVC029 M02/M05 A3000 RMK AO2 P0000 T10221050
  • 151253Z 28012KT 9SM -SN FEW016 FEW021 OVC036 M02/M05 A2997 RMK AO2 SNB1157 SLP161 P0000 T10221050

TAF KBTL
Valido dal 15 a 14 ore il 16 a 12 ore UTC


151424Z 1514/1612 28009KT 6SM -SHSN BR OVC024
TEMPO 1514/1516 2SM -SHSN BR OVC015
FM151700 28009KT P6SM BKN025
FM152000 27007KT P6SM BKN035
FM160100 VRB02KT P6SM OVC050



MetMap, La meteo Aeronautica in un colpo d'occhio ! - Copyright ORBIFLY Dicembre 2007 - Disclaimer

ORBIFLY MET'MAP TEAM :

Programmazione e sviluppo : Alexandra Zaïnal
Concezione : Baudouin d'Aumeries
Aiuto per la programmazione : Marc-Olivier Méhu
Supporto tecnico e logistico : Manuel Goepfert
Aiuto per la traduzione : Arnaldo La Scala

Contatto : metmap@orbifly.com




FONTI E CREDITI :

   NOAA       Earth
Advisory